• Join FlightAware (Why Join?)
  • Login
  • US Flag 
10:12AM EDT


 

Airport Tracker/Info


-or-


 

Live Flight TrackerFlight Track Log ✈ WBR2634 ✈ 22-Apr-2013 ✈ KBRL - KORD

Flight Track Log - Related Links

Times and Time Zones

All times are in EDT time to prevent confusion due to time zone crossing. See the WBR2634 flight status page for this flight to view local times or setup timezone preferences in your user account.

Time Position Orientation Groundspeed Altitude Reporting Facility
EDT Latitude Longitude Course Direction KTS MPH feet Rate Location/Type
05:38PM 40.7722 -91.0575 73° East 123 142 2,600  Level Chicago Center
05:39PM 40.7853 -91.0039 72° East 129 148 3,600 840 Climbing Chicago Center
05:40PM 40.8629 -90.7741 57° Northeast  Level FlightAware Approximate
05:40PM 40.8025 -90.9600 63° Northeast 131 151 4,400  Level Chicago Center
05:41PM 40.8751 -90.7163 72° East  Level FlightAware Approximate
05:41PM 40.8208 -90.9128 63° Northeast 136 157 5,000  Level Chicago Center
05:42PM 40.8892 -90.6581 73° East  Level FlightAware Approximate
05:42PM 40.8381 -90.8658 64° Northeast 141 162 5,700  Level Chicago Center
05:43PM 40.9028 -90.5997 73° East  Level FlightAware Approximate
05:44PM 40.9163 -90.5412 73° East  Level FlightAware Approximate
05:44PM 40.8542 -90.8189 66° East 141 162 6,300  Level Chicago Center
05:45PM 40.8714 -90.7683 66° East 147 169 7,000 660 Climbing Chicago Center
05:46PM 40.8886 -90.7175 66° East 150 173 7,700 720 Climbing Chicago Center
05:47PM 40.9133 -90.6564 62° Northeast 154 177 8,600 600 Climbing Chicago Center
05:48PM 40.9306 -90.6044 66° East 155 178 9,000 180 Climbing Chicago Center
05:49PM 40.9500 -90.5458 66° East 169 194 9,000  Level Chicago Center
05:50PM 40.9733 -90.4875 62° Northeast 177 204 9,000  Level Chicago Center
05:51PM 40.9944 -90.4294 64° Northeast 175 201 9,000  Level Chicago Center
05:52PM 41.0150 -90.3711 65° Northeast 174 200 9,000  Level Chicago Center
05:53PM 41.0389 -90.3011 66° East 174 200 9,000  Level Chicago Center
05:54PM 41.0589 -90.2433 65° Northeast 173 199 9,000  Level Chicago Center
05:55PM 41.0775 -90.1847 67° East 172 198 9,000  Level Chicago Center
05:56PM 41.0975 -90.1272 65° Northeast 172 198 9,000  Level Chicago Center
05:57PM 41.1186 -90.0686 64° Northeast 174 200 9,000  Level Chicago Center
05:58PM 41.1392 -90.0114 64° Northeast 172 198 9,000  Level Chicago Center
05:59PM 41.1578 -89.9525 67° East 172 198 9,000  Level Chicago Center
06:00PM 41.1839 -89.8817 64° Northeast 174 200 9,000  Level Chicago Center
06:01PM 41.2061 -89.8258 62° Northeast 174 200 9,000  Level Chicago Center
06:02PM 41.2244 -89.7678 67° East 170 196 9,000  Level Chicago Center
06:03PM 41.2422 -89.7100 68° East 169 194 9,000  Level Chicago Center
06:04PM 41.2631 -89.6533 64° Northeast 170 196 9,000  Level Chicago Center
06:05PM 41.2822 -89.5958 66° East 170 196 9,000  Level Chicago Center
06:06PM 41.3039 -89.5403 63° Northeast 170 196 9,000  Level Chicago Center
06:07PM 41.3258 -89.4708 67° East 169 194 9,000  Level Chicago Center
06:08PM 41.3450 -89.4139 66° East 169 194 9,000  Level Chicago Center
06:09PM 41.3622 -89.3547 69° East 170 196 9,000  Level Chicago Center
06:10PM 41.3825 -89.2981 64° Northeast 170 196 9,000  Level Chicago Center
06:11PM 41.4031 -89.2414 64° Northeast 170 196 9,000  Level Chicago Center
06:12PM 41.4239 -89.1772 67° East 169 194 9,000  Level Chicago Center
06:14PM 41.4439 -89.1203 65° Northeast 171 197 9,000  Level Chicago Center
06:15PM 41.4622 -89.0644 66° East 167 192 9,000  Level Chicago Center
06:16PM 41.4856 -88.9961 65° Northeast 169 194 9,000 -180 Level Chicago Center
06:17PM 41.5044 -88.9372 67° East 173 199 8,700 -420 Descending Chicago Center
06:18PM 41.5222 -88.8786 68° East 172 198 8,200 -360 Descending Chicago Center
06:19PM 41.5439 -88.8197 64° Northeast 176 203 8,000 -120 Descending Chicago Center
06:20PM 41.5636 -88.7625 65° Northeast 172 198 8,000  Level Chicago Center
06:21PM 41.5858 -88.6931 67° East 170 196 8,000  Level Chicago Center
06:22PM 41.6036 -88.6361 67° East 169 194 8,000  Level Chicago Center
06:23PM 41.6278 -88.5811 60° Northeast 176 203 8,000  Level Chicago Center
06:24PM 41.6561 -88.5308 53° Northeast 170 196 8,000  Level Chicago Center
06:25PM 41.6772 -88.4728 64° Northeast 173 199 8,000  Level Chicago Center
06:26PM 41.6956 -88.4167 66° East 167 192 8,000 -60 Level Chicago Center
06:27PM 41.7197 -88.3483 65° Northeast 167 192 7,900 -300 Descending Chicago Center
06:28PM 41.7644 -88.3233 23° Northeast 192 221 7,400 -480 Descending Chicago Center
06:29PM 41.8158 -88.3278 356° North 189 217 7,000 -300 Descending Chicago Center
06:30PM 41.8461 -88.2775 51° Northeast 168 193 6,900 -120 Descending Chicago Center
06:31PM 41.8886 -88.2664 11° North 176 203 6,800 -480 Descending Chicago Center
06:32PM 41.9106 -88.3303 295° West 163 188 6,000 -600 Descending Chicago Center
06:33PM 41.9614 -88.3381 354° North 180 207 5,600 -540 Descending Chicago Center
06:34PM 41.9683 -88.2794 81° East 178 205 5,000 -720 Descending Chicago Center
06:35PM 41.9706 -88.2208 87° East 166 191 4,200 -540 Descending Chicago Center
06:36PM 41.9678 -88.1614 94° East 162 186 3,900 -540 Descending Chicago Center
06:37PM 41.9697 -88.0947 88° East 155 178 3,100 -780 Descending Chicago Center
06:38PM 41.9686 -88.0411 92° East 150 173 2,300 -840 Descending Chicago Center
06:39PM 41.9681 -87.9881 91° East 147 169 1,400 -900 Descending Chicago Center
06:42PM 41.9667 -87.9000 90° East  Level FlightAware Approximate